sensor_id;sensor_type;location;lat;lon;timestamp;temperature;humidity
14122;DHT22;7139;48.114;11.442;2023-04-23T00:00:33;14.70;94.50
14122;DHT22;7139;48.114;11.442;2023-04-23T00:03:06;14.70;94.70
14122;DHT22;7139;48.114;11.442;2023-04-23T00:05:35;14.70;94.30
14122;DHT22;7139;48.114;11.442;2023-04-23T00:08:03;14.70;94.70
14122;DHT22;7139;48.114;11.442;2023-04-23T00:10:31;14.60;94.60
14122;DHT22;7139;48.114;11.442;2023-04-23T00:12:58;14.60;95.00
14122;DHT22;7139;48.114;11.442;2023-04-23T00:15:26;14.60;95.40
14122;DHT22;7139;48.114;11.442;2023-04-23T00:17:53;14.60;95.40
14122;DHT22;7139;48.114;11.442;2023-04-23T00:20:20;14.60;95.10
14122;DHT22;7139;48.114;11.442;2023-04-23T00:22:47;14.60;94.80
14122;DHT22;7139;48.114;11.442;2023-04-23T00:25:14;14.50;94.50
14122;DHT22;7139;48.114;11.442;2023-04-23T00:27:42;14.50;94.50
14122;DHT22;7139;48.114;11.442;2023-04-23T00:30:09;14.50;94.90
14122;DHT22;7139;48.114;11.442;2023-04-23T00:32:36;14.50;95.30
14122;DHT22;7139;48.114;11.442;2023-04-23T00:35:03;14.50;95.20
14122;DHT22;7139;48.114;11.442;2023-04-23T00:37:30;14.50;95.40
14122;DHT22;7139;48.114;11.442;2023-04-23T00:39:57;14.50;95.60
14122;DHT22;7139;48.114;11.442;2023-04-23T00:42:24;14.50;95.60
14122;DHT22;7139;48.114;11.442;2023-04-23T00:44:52;14.40;95.70
14122;DHT22;7139;48.114;11.442;2023-04-23T00:47:21;14.40;96.10
14122;DHT22;7139;48.114;11.442;2023-04-23T00:49:48;14.40;96.30
14122;DHT22;7139;48.114;11.442;2023-04-23T00:52:15;14.40;96.70
14122;DHT22;7139;48.114;11.442;2023-04-23T00:54:42;14.40;96.60
14122;DHT22;7139;48.114;11.442;2023-04-23T00:57:09;14.40;96.70
14122;DHT22;7139;48.114;11.442;2023-04-23T00:59:36;14.30;96.50
14122;DHT22;7139;48.114;11.442;2023-04-23T01:02:04;14.30;96.80
14122;DHT22;7139;48.114;11.442;2023-04-23T01:04:32;14.30;97.30
14122;DHT22;7139;48.114;11.442;2023-04-23T01:06:59;14.30;97.40
14122;DHT22;7139;48.114;11.442;2023-04-23T01:09:26;14.30;97.50
14122;DHT22;7139;48.114;11.442;2023-04-23T01:11:54;14.20;97.30
14122;DHT22;7139;48.114;11.442;2023-04-23T01:14:20;14.20;97.60
14122;DHT22;7139;48.114;11.442;2023-04-23T01:16:48;14.20;98.10
14122;DHT22;7139;48.114;11.442;2023-04-23T01:19:16;14.20;98.10
14122;DHT22;7139;48.114;11.442;2023-04-23T01:21:43;14.10;98.30
14122;DHT22;7139;48.114;11.442;2023-04-23T01:24:11;14.20;98.50
14122;DHT22;7139;48.114;11.442;2023-04-23T01:26:38;14.20;98.80
14122;DHT22;7139;48.114;11.442;2023-04-23T01:29:05;14.10;98.60
14122;DHT22;7139;48.114;11.442;2023-04-23T01:31:32;14.10;98.70
14122;DHT22;7139;48.114;11.442;2023-04-23T01:33:59;14.10;98.90
14122;DHT22;7139;48.114;11.442;2023-04-23T01:36:27;14.10;98.90
14122;DHT22;7139;48.114;11.442;2023-04-23T01:38:53;14.10;98.80
14122;DHT22;7139;48.114;11.442;2023-04-23T01:41:21;14.00;98.90
14122;DHT22;7139;48.114;11.442;2023-04-23T01:43:49;14.00;99.30
14122;DHT22;7139;48.114;11.442;2023-04-23T01:46:15;14.00;99.50
14122;DHT22;7139;48.114;11.442;2023-04-23T01:48:42;13.90;99.40
14122;DHT22;7139;48.114;11.442;2023-04-23T01:51:09;13.90;99.50
14122;DHT22;7139;48.114;11.442;2023-04-23T01:53:36;13.90;99.60
14122;DHT22;7139;48.114;11.442;2023-04-23T01:56:02;13.90;99.40
14122;DHT22;7139;48.114;11.442;2023-04-23T01:58:32;13.90;99.50
14122;DHT22;7139;48.114;11.442;2023-04-23T02:00:58;13.90;99.50
14122;DHT22;7139;48.114;11.442;2023-04-23T02:03:25;13.90;99.40
14122;DHT22;7139;48.114;11.442;2023-04-23T02:05:53;13.90;99.30
14122;DHT22;7139;48.114;11.442;2023-04-23T02:08:20;13.80;99.40
14122;DHT22;7139;48.114;11.442;2023-04-23T02:10:47;13.80;99.70
14122;DHT22;7139;48.114;11.442;2023-04-23T02:13:14;13.80;99.90
14122;DHT22;7139;48.114;11.442;2023-04-23T02:15:42;13.80;99.90
14122;DHT22;7139;48.114;11.442;2023-04-23T02:18:09;13.80;99.90
14122;DHT22;7139;48.114;11.442;2023-04-23T02:20:36;13.90;99.90
14122;DHT22;7139;48.114;11.442;2023-04-23T02:23:05;13.80;99.90
14122;DHT22;7139;48.114;11.442;2023-04-23T02:25:32;13.80;99.90
14122;DHT22;7139;48.114;11.442;2023-04-23T02:27:59;13.80;99.90
14122;DHT22;7139;48.114;11.442;2023-04-23T02:30:29;13.80;99.90
14122;DHT22;7139;48.114;11.442;2023-04-23T02:32:57;13.80;99.70
14122;DHT22;7139;48.114;11.442;2023-04-23T02:35:24;13.80;99.60
14122;DHT22;7139;48.114;11.442;2023-04-23T02:37:52;13.80;99.70
14122;DHT22;7139;48.114;11.442;2023-04-23T02:40:19;13.80;99.80
14122;DHT22;7139;48.114;11.442;2023-04-23T02:42:47;13.80;99.70
14122;DHT22;7139;48.114;11.442;2023-04-23T02:45:14;13.80;99.80
14122;DHT22;7139;48.114;11.442;2023-04-23T02:47:41;13.80;99.60
14122;DHT22;7139;48.114;11.442;2023-04-23T02:50:09;13.70;99.50
14122;DHT22;7139;48.114;11.442;2023-04-23T02:52:36;13.70;99.30
14122;DHT22;7139;48.114;11.442;2023-04-23T02:55:03;13.70;99.60
14122;DHT22;7139;48.114;11.442;2023-04-23T02:57:31;13.70;99.80
14122;DHT22;7139;48.114;11.442;2023-04-23T02:59:59;13.70;99.90
14122;DHT22;7139;48.114;11.442;2023-04-23T03:02:25;13.70;99.80
14122;DHT22;7139;48.114;11.442;2023-04-23T03:04:52;13.70;99.90
14122;DHT22;7139;48.114;11.442;2023-04-23T03:07:21;13.60;99.90
14122;DHT22;7139;48.114;11.442;2023-04-23T03:09:47;13.60;99.90
14122;DHT22;7139;48.114;11.442;2023-04-23T03:12:14;13.60;99.90
14122;DHT22;7139;48.114;11.442;2023-04-23T03:14:41;13.60;99.90
14122;DHT22;7139;48.114;11.442;2023-04-23T03:17:07;13.60;99.90
14122;DHT22;7139;48.114;11.442;2023-04-23T03:19:34;13.60;99.90
14122;DHT22;7139;48.114;11.442;2023-04-23T03:22:01;13.60;99.90
14122;DHT22;7139;48.114;11.442;2023-04-23T03:24:31;13.60;99.90
14122;DHT22;7139;48.114;11.442;2023-04-23T03:26:58;13.60;99.90
14122;DHT22;7139;48.114;11.442;2023-04-23T03:29:25;13.60;99.90
14122;DHT22;7139;48.114;11.442;2023-04-23T03:31:51;13.60;99.90
14122;DHT22;7139;48.114;11.442;2023-04-23T03:34:18;13.60;99.90
14122;DHT22;7139;48.114;11.442;2023-04-23T03:36:45;13.60;99.90
14122;DHT22;7139;48.114;11.442;2023-04-23T03:39:13;13.60;99.90
14122;DHT22;7139;48.114;11.442;2023-04-23T03:41:41;13.50;99.90
14122;DHT22;7139;48.114;11.442;2023-04-23T03:44:08;13.60;99.90
14122;DHT22;7139;48.114;11.442;2023-04-23T03:46:34;13.60;99.90
14122;DHT22;7139;48.114;11.442;2023-04-23T03:49:01;13.50;99.90
14122;DHT22;7139;48.114;11.442;2023-04-23T03:51:28;13.50;99.90
14122;DHT22;7139;48.114;11.442;2023-04-23T03:53:56;13.50;99.90
14122;DHT22;7139;48.114;11.442;2023-04-23T03:56:22;13.50;99.90
14122;DHT22;7139;48.114;11.442;2023-04-23T03:58:51;13.50;99.90
14122;DHT22;7139;48.114;11.442;2023-04-23T04:01:18;13.50;99.90
14122;DHT22;7139;48.114;11.442;2023-04-23T04:03:45;13.50;99.90
14122;DHT22;7139;48.114;11.442;2023-04-23T04:06:12;13.50;99.90
14122;DHT22;7139;48.114;11.442;2023-04-23T04:08:38;13.50;99.90
14122;DHT22;7139;48.114;11.442;2023-04-23T04:11:05;13.50;99.90
14122;DHT22;7139;48.114;11.442;2023-04-23T04:13:32;13.50;99.90
14122;DHT22;7139;48.114;11.442;2023-04-23T04:16:00;13.50;99.90
14122;DHT22;7139;48.114;11.442;2023-04-23T04:18:27;13.50;99.90
14122;DHT22;7139;48.114;11.442;2023-04-23T04:20:54;13.50;99.90
14122;DHT22;7139;48.114;11.442;2023-04-23T04:23:21;13.40;99.90
14122;DHT22;7139;48.114;11.442;2023-04-23T04:25:48;13.40;99.90
14122;DHT22;7139;48.114;11.442;2023-04-23T04:28:15;13.20;99.90
14122;DHT22;7139;48.114;11.442;2023-04-23T04:30:42;13.20;99.90
14122;DHT22;7139;48.114;11.442;2023-04-23T04:33:10;13.20;99.90
14122;DHT22;7139;48.114;11.442;2023-04-23T04:35:37;13.10;99.90
14122;DHT22;7139;48.114;11.442;2023-04-23T04:38:03;13.00;99.90
14122;DHT22;7139;48.114;11.442;2023-04-23T04:40:30;13.00;99.90
14122;DHT22;7139;48.114;11.442;2023-04-23T04:42:58;13.00;99.90
14122;DHT22;7139;48.114;11.442;2023-04-23T04:45:25;13.00;99.90
14122;DHT22;7139;48.114;11.442;2023-04-23T04:47:52;13.00;99.90
14122;DHT22;7139;48.114;11.442;2023-04-23T04:50:20;12.90;99.90
14122;DHT22;7139;48.114;11.442;2023-04-23T04:52:47;12.90;99.90
14122;DHT22;7139;48.114;11.442;2023-04-23T04:55:13;12.80;99.90
14122;DHT22;7139;48.114;11.442;2023-04-23T04:57:40;12.80;99.90
14122;DHT22;7139;48.114;11.442;2023-04-23T05:00:23;12.90;99.90
14122;DHT22;7139;48.114;11.442;2023-04-23T05:02:52;12.80;99.90
14122;DHT22;7139;48.114;11.442;2023-04-23T05:05:22;12.80;99.90
14122;DHT22;7139;48.114;11.442;2023-04-23T05:07:49;12.80;99.90
14122;DHT22;7139;48.114;11.442;2023-04-23T05:10:16;12.70;99.90
14122;DHT22;7139;48.114;11.442;2023-04-23T05:12:43;12.70;99.90
14122;DHT22;7139;48.114;11.442;2023-04-23T05:15:11;12.70;99.90
14122;DHT22;7139;48.114;11.442;2023-04-23T05:17:38;12.60;99.90
14122;DHT22;7139;48.114;11.442;2023-04-23T05:20:06;12.60;99.90
14122;DHT22;7139;48.114;11.442;2023-04-23T05:22:36;12.70;99.90
14122;DHT22;7139;48.114;11.442;2023-04-23T05:25:03;12.60;99.90
14122;DHT22;7139;48.114;11.442;2023-04-23T05:27:30;12.50;99.90
14122;DHT22;7139;48.114;11.442;2023-04-23T05:29:57;12.50;99.90
14122;DHT22;7139;48.114;11.442;2023-04-23T05:32:23;12.50;99.90
14122;DHT22;7139;48.114;11.442;2023-04-23T05:34:51;12.60;99.90
14122;DHT22;7139;48.114;11.442;2023-04-23T05:37:17;12.60;99.90
14122;DHT22;7139;48.114;11.442;2023-04-23T05:39:45;12.60;99.90
14122;DHT22;7139;48.114;11.442;2023-04-23T05:42:12;12.60;99.90
14122;DHT22;7139;48.114;11.442;2023-04-23T05:44:39;12.50;99.90
14122;DHT22;7139;48.114;11.442;2023-04-23T05:47:08;12.50;99.90
14122;DHT22;7139;48.114;11.442;2023-04-23T05:49:35;12.50;99.90
14122;DHT22;7139;48.114;11.442;2023-04-23T05:52:02;12.40;99.90
14122;DHT22;7139;48.114;11.442;2023-04-23T05:54:29;12.40;99.90
14122;DHT22;7139;48.114;11.442;2023-04-23T05:56:57;12.50;99.90
14122;DHT22;7139;48.114;11.442;2023-04-23T05:59:24;12.50;99.90
14122;DHT22;7139;48.114;11.442;2023-04-23T06:01:50;12.40;99.90
14122;DHT22;7139;48.114;11.442;2023-04-23T06:04:17;12.40;99.90
14122;DHT22;7139;48.114;11.442;2023-04-23T06:06:44;12.40;99.90
14122;DHT22;7139;48.114;11.442;2023-04-23T06:09:11;12.40;99.90
14122;DHT22;7139;48.114;11.442;2023-04-23T06:11:38;12.40;99.90
14122;DHT22;7139;48.114;11.442;2023-04-23T06:14:06;12.40;99.90
14122;DHT22;7139;48.114;11.442;2023-04-23T06:16:32;12.40;99.90
14122;DHT22;7139;48.114;11.442;2023-04-23T06:18:59;12.40;99.90
14122;DHT22;7139;48.114;11.442;2023-04-23T06:21:26;12.50;99.90
14122;DHT22;7139;48.114;11.442;2023-04-23T06:23:53;12.50;99.90
14122;DHT22;7139;48.114;11.442;2023-04-23T06:26:20;12.50;99.90
14122;DHT22;7139;48.114;11.442;2023-04-23T06:28:46;12.50;99.90
14122;DHT22;7139;48.114;11.442;2023-04-23T06:31:15;12.50;99.90
14122;DHT22;7139;48.114;11.442;2023-04-23T06:33:41;12.50;99.90
14122;DHT22;7139;48.114;11.442;2023-04-23T06:36:08;12.50;99.90
14122;DHT22;7139;48.114;11.442;2023-04-23T06:38:35;12.60;99.90
14122;DHT22;7139;48.114;11.442;2023-04-23T06:41:02;12.60;99.90
14122;DHT22;7139;48.114;11.442;2023-04-23T06:43:29;12.60;99.90
14122;DHT22;7139;48.114;11.442;2023-04-23T06:45:57;12.60;99.90
14122;DHT22;7139;48.114;11.442;2023-04-23T06:48:25;12.60;99.90
14122;DHT22;7139;48.114;11.442;2023-04-23T06:50:51;12.60;99.90
14122;DHT22;7139;48.114;11.442;2023-04-23T06:53:18;12.60;99.90
14122;DHT22;7139;48.114;11.442;2023-04-23T06:55:45;12.60;99.90
14122;DHT22;7139;48.114;11.442;2023-04-23T06:58:14;12.60;99.90
14122;DHT22;7139;48.114;11.442;2023-04-23T07:00:41;12.60;99.90
14122;DHT22;7139;48.114;11.442;2023-04-23T07:03:07;12.60;99.90
14122;DHT22;7139;48.114;11.442;2023-04-23T07:05:36;12.60;99.90
14122;DHT22;7139;48.114;11.442;2023-04-23T07:08:02;12.60;99.90
14122;DHT22;7139;48.114;11.442;2023-04-23T07:10:29;12.70;99.90
14122;DHT22;7139;48.114;11.442;2023-04-23T07:12:56;12.80;99.90
14122;DHT22;7139;48.114;11.442;2023-04-23T07:15:23;12.80;99.90
14122;DHT22;7139;48.114;11.442;2023-04-23T07:17:50;12.90;99.90
14122;DHT22;7139;48.114;11.442;2023-04-23T07:20:16;12.90;99.90
14122;DHT22;7139;48.114;11.442;2023-04-23T07:22:44;12.90;99.90
14122;DHT22;7139;48.114;11.442;2023-04-23T07:25:11;12.90;99.90
14122;DHT22;7139;48.114;11.442;2023-04-23T07:27:38;12.90;99.90
14122;DHT22;7139;48.114;11.442;2023-04-23T07:30:06;12.90;99.90
14122;DHT22;7139;48.114;11.442;2023-04-23T07:32:33;13.00;99.90
14122;DHT22;7139;48.114;11.442;2023-04-23T07:35:00;13.00;99.90
14122;DHT22;7139;48.114;11.442;2023-04-23T07:37:27;12.90;99.90
14122;DHT22;7139;48.114;11.442;2023-04-23T07:39:55;12.90;99.90
14122;DHT22;7139;48.114;11.442;2023-04-23T07:42:21;12.90;99.90
14122;DHT22;7139;48.114;11.442;2023-04-23T07:44:48;12.90;99.90
14122;DHT22;7139;48.114;11.442;2023-04-23T07:47:15;12.90;99.90
14122;DHT22;7139;48.114;11.442;2023-04-23T07:49:42;13.00;99.90
14122;DHT22;7139;48.114;11.442;2023-04-23T07:52:08;13.00;99.90
14122;DHT22;7139;48.114;11.442;2023-04-23T07:54:35;13.00;99.90
14122;DHT22;7139;48.114;11.442;2023-04-23T07:57:03;13.10;99.90
14122;DHT22;7139;48.114;11.442;2023-04-23T07:59:30;13.10;99.90
14122;DHT22;7139;48.114;11.442;2023-04-23T08:01:57;13.00;99.90
14122;DHT22;7139;48.114;11.442;2023-04-23T08:04:23;13.00;99.90
14122;DHT22;7139;48.114;11.442;2023-04-23T08:06:50;13.00;99.90
14122;DHT22;7139;48.114;11.442;2023-04-23T08:09:17;13.10;99.90
14122;DHT22;7139;48.114;11.442;2023-04-23T08:11:44;13.10;99.90
14122;DHT22;7139;48.114;11.442;2023-04-23T08:14:12;13.10;99.90
14122;DHT22;7139;48.114;11.442;2023-04-23T08:16:39;13.20;99.90
14122;DHT22;7139;48.114;11.442;2023-04-23T08:19:05;13.30;99.90
14122;DHT22;7139;48.114;11.442;2023-04-23T08:21:32;13.30;99.90
14122;DHT22;7139;48.114;11.442;2023-04-23T08:23:59;13.40;99.90
14122;DHT22;7139;48.114;11.442;2023-04-23T08:26:27;13.50;99.90
14122;DHT22;7139;48.114;11.442;2023-04-23T08:28:53;13.50;99.90
14122;DHT22;7139;48.114;11.442;2023-04-23T08:31:22;13.60;99.90
14122;DHT22;7139;48.114;11.442;2023-04-23T08:33:49;13.60;99.90
14122;DHT22;7139;48.114;11.442;2023-04-23T08:36:16;13.70;99.90
14122;DHT22;7139;48.114;11.442;2023-04-23T08:38:42;13.80;99.90
14122;DHT22;7139;48.114;11.442;2023-04-23T08:41:10;13.90;99.90
14122;DHT22;7139;48.114;11.442;2023-04-23T08:43:43;14.00;99.90
14122;DHT22;7139;48.114;11.442;2023-04-23T08:46:12;14.10;99.90
14122;DHT22;7139;48.114;11.442;2023-04-23T08:48:43;14.20;99.90
14122;DHT22;7139;48.114;11.442;2023-04-23T08:51:14;14.30;99.90
14122;DHT22;7139;48.114;11.442;2023-04-23T08:53:44;14.30;99.90
14122;DHT22;7139;48.114;11.442;2023-04-23T08:56:14;14.30;99.90
14122;DHT22;7139;48.114;11.442;2023-04-23T09:01:10;14.30;99.90
14122;DHT22;7139;48.114;11.442;2023-04-23T09:03:37;14.30;99.90
14122;DHT22;7139;48.114;11.442;2023-04-23T09:06:06;14.40;99.90
14122;DHT22;7139;48.114;11.442;2023-04-23T09:08:33;14.50;99.90
14122;DHT22;7139;48.114;11.442;2023-04-23T09:11:00;14.70;99.90
14122;DHT22;7139;48.114;11.442;2023-04-23T09:13:29;14.80;99.90
14122;DHT22;7139;48.114;11.442;2023-04-23T09:15:56;14.90;99.90
14122;DHT22;7139;48.114;11.442;2023-04-23T09:18:23;14.90;99.90
14122;DHT22;7139;48.114;11.442;2023-04-23T09:20:51;14.90;99.90
14122;DHT22;7139;48.114;11.442;2023-04-23T09:23:21;15.00;99.90
14122;DHT22;7139;48.114;11.442;2023-04-23T09:25:48;15.00;99.90
14122;DHT22;7139;48.114;11.442;2023-04-23T09:28:15;15.10;99.90
14122;DHT22;7139;48.114;11.442;2023-04-23T09:30:43;15.10;99.90
14122;DHT22;7139;48.114;11.442;2023-04-23T09:33:10;15.10;99.90
14122;DHT22;7139;48.114;11.442;2023-04-23T09:35:37;15.10;99.90
14122;DHT22;7139;48.114;11.442;2023-04-23T09:38:07;15.10;99.90
14122;DHT22;7139;48.114;11.442;2023-04-23T09:40:36;15.20;99.90
14122;DHT22;7139;48.114;11.442;2023-04-23T09:43:03;15.20;99.90
14122;DHT22;7139;48.114;11.442;2023-04-23T09:45:31;15.20;99.90
14122;DHT22;7139;48.114;11.442;2023-04-23T09:47:59;15.20;99.90
14122;DHT22;7139;48.114;11.442;2023-04-23T09:50:37;15.20;99.90
14122;DHT22;7139;48.114;11.442;2023-04-23T09:53:05;15.20;99.90
14122;DHT22;7139;48.114;11.442;2023-04-23T09:55:32;15.20;99.90
14122;DHT22;7139;48.114;11.442;2023-04-23T09:58:04;15.20;99.90
14122;DHT22;7139;48.114;11.442;2023-04-23T10:00:33;15.20;99.90
14122;DHT22;7139;48.114;11.442;2023-04-23T10:03:01;15.30;99.90
14122;DHT22;7139;48.114;11.442;2023-04-23T10:05:28;15.40;99.90
14122;DHT22;7139;48.114;11.442;2023-04-23T10:07:55;15.50;99.90
14122;DHT22;7139;48.114;11.442;2023-04-23T10:10:23;15.60;99.90
14122;DHT22;7139;48.114;11.442;2023-04-23T10:12:51;15.80;99.90
14122;DHT22;7139;48.114;11.442;2023-04-23T10:15:22;16.00;99.90
14122;DHT22;7139;48.114;11.442;2023-04-23T10:17:49;16.00;99.90
14122;DHT22;7139;48.114;11.442;2023-04-23T10:20:16;16.10;99.90
14122;DHT22;7139;48.114;11.442;2023-04-23T10:22:45;16.10;99.90
14122;DHT22;7139;48.114;11.442;2023-04-23T10:25:12;16.20;99.90
14122;DHT22;7139;48.114;11.442;2023-04-23T10:27:41;16.10;99.90
14122;DHT22;7139;48.114;11.442;2023-04-23T10:30:10;16.00;99.90
14122;DHT22;7139;48.114;11.442;2023-04-23T10:32:39;16.00;99.90
14122;DHT22;7139;48.114;11.442;2023-04-23T10:35:08;16.10;99.90
14122;DHT22;7139;48.114;11.442;2023-04-23T10:37:36;16.10;99.90
14122;DHT22;7139;48.114;11.442;2023-04-23T10:40:06;16.20;99.90
14122;DHT22;7139;48.114;11.442;2023-04-23T10:42:36;16.30;99.90
14122;DHT22;7139;48.114;11.442;2023-04-23T10:45:11;16.40;99.90
14122;DHT22;7139;48.114;11.442;2023-04-23T10:47:41;16.40;99.90
14122;DHT22;7139;48.114;11.442;2023-04-23T10:50:19;16.50;99.90
14122;DHT22;7139;48.114;11.442;2023-04-23T10:52:46;16.60;99.90
14122;DHT22;7139;48.114;11.442;2023-04-23T10:55:19;16.90;99.90
14122;DHT22;7139;48.114;11.442;2023-04-23T10:58:01;17.30;99.90
14122;DHT22;7139;48.114;11.442;2023-04-23T11:00:30;17.70;99.90
14122;DHT22;7139;48.114;11.442;2023-04-23T11:03:26;18.00;99.90
14122;DHT22;7139;48.114;11.442;2023-04-23T11:05:54;18.40;99.90
14122;DHT22;7139;48.114;11.442;2023-04-23T11:08:21;18.70;99.90
14122;DHT22;7139;48.114;11.442;2023-04-23T11:10:53;18.70;99.20
14122;DHT22;7139;48.114;11.442;2023-04-23T11:13:22;18.60;98.20
14122;DHT22;7139;48.114;11.442;2023-04-23T11:16:11;18.50;98.60
14122;DHT22;7139;48.114;11.442;2023-04-23T11:18:59;18.50;99.50
14122;DHT22;7139;48.114;11.442;2023-04-23T11:21:56;18.70;99.40
14122;DHT22;7139;48.114;11.442;2023-04-23T11:24:23;18.70;98.60
14122;DHT22;7139;48.114;11.442;2023-04-23T11:26:51;18.50;98.40
14122;DHT22;7139;48.114;11.442;2023-04-23T11:29:20;18.30;98.30
14122;DHT22;7139;48.114;11.442;2023-04-23T11:31:48;18.20;98.50
14122;DHT22;7139;48.114;11.442;2023-04-23T11:34:16;18.10;98.90
14122;DHT22;7139;48.114;11.442;2023-04-23T11:36:43;18.10;98.70
14122;DHT22;7139;48.114;11.442;2023-04-23T11:39:10;18.10;98.60
14122;DHT22;7139;48.114;11.442;2023-04-23T11:41:38;18.20;99.20
14122;DHT22;7139;48.114;11.442;2023-04-23T11:44:04;18.50;99.20
14122;DHT22;7139;48.114;11.442;2023-04-23T11:46:32;18.70;98.10
14122;DHT22;7139;48.114;11.442;2023-04-23T11:48:59;18.60;96.30
14122;DHT22;7139;48.114;11.442;2023-04-23T11:51:27;18.70;97.20
14122;DHT22;7139;48.114;11.442;2023-04-23T11:54:01;19.00;96.70
14122;DHT22;7139;48.114;11.442;2023-04-23T11:56:29;19.40;96.90
14122;DHT22;7139;48.114;11.442;2023-04-23T11:59:00;19.90;95.70
14122;DHT22;7139;48.114;11.442;2023-04-23T12:01:39;20.10;95.10
14122;DHT22;7139;48.114;11.442;2023-04-23T12:04:09;20.40;94.50
14122;DHT22;7139;48.114;11.442;2023-04-23T12:06:38;20.40;94.20
14122;DHT22;7139;48.114;11.442;2023-04-23T12:09:05;20.20;93.40
14122;DHT22;7139;48.114;11.442;2023-04-23T12:11:34;20.30;94.30
14122;DHT22;7139;48.114;11.442;2023-04-23T12:14:00;20.40;93.90
14122;DHT22;7139;48.114;11.442;2023-04-23T12:16:39;20.30;93.20
14122;DHT22;7139;48.114;11.442;2023-04-23T12:19:11;20.30;92.60
14122;DHT22;7139;48.114;11.442;2023-04-23T12:21:53;20.20;92.90
14122;DHT22;7139;48.114;11.442;2023-04-23T12:24:21;20.00;92.20
14122;DHT22;7139;48.114;11.442;2023-04-23T12:26:49;19.90;92.10
14122;DHT22;7139;48.114;11.442;2023-04-23T12:29:19;20.00;92.70
14122;DHT22;7139;48.114;11.442;2023-04-23T12:31:47;20.30;94.40
14122;DHT22;7139;48.114;11.442;2023-04-23T12:34:14;20.50;93.70
14122;DHT22;7139;48.114;11.442;2023-04-23T12:36:45;20.70;92.80
14122;DHT22;7139;48.114;11.442;2023-04-23T12:39:26;20.90;91.70
14122;DHT22;7139;48.114;11.442;2023-04-23T12:41:56;21.10;91.20
14122;DHT22;7139;48.114;11.442;2023-04-23T12:44:25;21.20;91.50
14122;DHT22;7139;48.114;11.442;2023-04-23T12:46:55;21.30;90.60
14122;DHT22;7139;48.114;11.442;2023-04-23T12:49:22;21.40;91.20
14122;DHT22;7139;48.114;11.442;2023-04-23T12:51:49;21.40;89.40
14122;DHT22;7139;48.114;11.442;2023-04-23T12:54:17;21.40;89.50
14122;DHT22;7139;48.114;11.442;2023-04-23T12:56:45;21.30;90.30
14122;DHT22;7139;48.114;11.442;2023-04-23T12:59:11;21.10;89.70
14122;DHT22;7139;48.114;11.442;2023-04-23T13:01:38;20.90;90.30
14122;DHT22;7139;48.114;11.442;2023-04-23T13:04:05;20.90;89.90
14122;DHT22;7139;48.114;11.442;2023-04-23T13:06:32;20.80;90.80
14122;DHT22;7139;48.114;11.442;2023-04-23T13:08:59;20.70;90.80
14122;DHT22;7139;48.114;11.442;2023-04-23T13:11:27;20.70;90.30
14122;DHT22;7139;48.114;11.442;2023-04-23T13:13:56;20.80;90.80
14122;DHT22;7139;48.114;11.442;2023-04-23T13:16:22;20.80;90.30
14122;DHT22;7139;48.114;11.442;2023-04-23T13:18:49;20.70;90.90
14122;DHT22;7139;48.114;11.442;2023-04-23T13:21:17;20.60;90.30
14122;DHT22;7139;48.114;11.442;2023-04-23T13:23:43;20.60;90.40
14122;DHT22;7139;48.114;11.442;2023-04-23T13:26:10;20.70;90.60
14122;DHT22;7139;48.114;11.442;2023-04-23T13:28:37;20.60;90.10
14122;DHT22;7139;48.114;11.442;2023-04-23T13:31:05;20.40;90.20
14122;DHT22;7139;48.114;11.442;2023-04-23T13:33:32;20.40;90.10
14122;DHT22;7139;48.114;11.442;2023-04-23T13:36:00;20.40;91.10
14122;DHT22;7139;48.114;11.442;2023-04-23T13:38:28;20.40;91.80
14122;DHT22;7139;48.114;11.442;2023-04-23T13:40:54;20.40;91.80
14122;DHT22;7139;48.114;11.442;2023-04-23T13:43:21;20.40;91.60
14122;DHT22;7139;48.114;11.442;2023-04-23T13:45:48;20.30;91.60
14122;DHT22;7139;48.114;11.442;2023-04-23T13:48:17;20.30;92.10
14122;DHT22;7139;48.114;11.442;2023-04-23T13:50:44;20.30;91.60
14122;DHT22;7139;48.114;11.442;2023-04-23T13:53:11;20.30;91.30
14122;DHT22;7139;48.114;11.442;2023-04-23T13:55:38;20.20;91.40
14122;DHT22;7139;48.114;11.442;2023-04-23T13:58:05;20.20;90.70
14122;DHT22;7139;48.114;11.442;2023-04-23T14:00:32;20.10;91.20
14122;DHT22;7139;48.114;11.442;2023-04-23T14:02:59;20.10;91.30
14122;DHT22;7139;48.114;11.442;2023-04-23T14:05:27;20.20;91.30
14122;DHT22;7139;48.114;11.442;2023-04-23T14:07:54;20.30;91.20
14122;DHT22;7139;48.114;11.442;2023-04-23T14:10:21;20.30;89.30
14122;DHT22;7139;48.114;11.442;2023-04-23T14:12:48;20.30;90.40
14122;DHT22;7139;48.114;11.442;2023-04-23T14:15:15;20.30;91.00
14122;DHT22;7139;48.114;11.442;2023-04-23T14:17:42;20.20;91.40
14122;DHT22;7139;48.114;11.442;2023-04-23T14:20:11;20.10;91.10
14122;DHT22;7139;48.114;11.442;2023-04-23T14:22:41;20.00;90.40
14122;DHT22;7139;48.114;11.442;2023-04-23T14:25:09;19.90;91.20
14122;DHT22;7139;48.114;11.442;2023-04-23T14:27:39;19.80;91.40
14122;DHT22;7139;48.114;11.442;2023-04-23T14:30:15;19.80;91.50
14122;DHT22;7139;48.114;11.442;2023-04-23T14:32:42;19.70;91.60
14122;DHT22;7139;48.114;11.442;2023-04-23T14:35:11;19.70;92.40
14122;DHT22;7139;48.114;11.442;2023-04-23T14:37:37;19.60;92.10
14122;DHT22;7139;48.114;11.442;2023-04-23T14:40:09;19.60;92.50
14122;DHT22;7139;48.114;11.442;2023-04-23T14:42:37;19.60;92.20
14122;DHT22;7139;48.114;11.442;2023-04-23T14:45:05;19.50;92.10
14122;DHT22;7139;48.114;11.442;2023-04-23T14:47:31;19.60;92.20
14122;DHT22;7139;48.114;11.442;2023-04-23T14:49:58;19.60;92.50
14122;DHT22;7139;48.114;11.442;2023-04-23T14:52:25;19.60;92.40
14122;DHT22;7139;48.114;11.442;2023-04-23T14:54:52;19.60;92.10
14122;DHT22;7139;48.114;11.442;2023-04-23T14:57:22;19.70;92.10
14122;DHT22;7139;48.114;11.442;2023-04-23T14:59:48;19.70;92.40
14122;DHT22;7139;48.114;11.442;2023-04-23T15:02:15;19.80;91.80
14122;DHT22;7139;48.114;11.442;2023-04-23T15:04:42;19.70;92.20
14122;DHT22;7139;48.114;11.442;2023-04-23T15:07:08;19.70;91.90
14122;DHT22;7139;48.114;11.442;2023-04-23T15:09:35;19.50;91.50
14122;DHT22;7139;48.114;11.442;2023-04-23T15:12:05;19.40;92.30
14122;DHT22;7139;48.114;11.442;2023-04-23T15:14:54;19.50;92.60
14122;DHT22;7139;48.114;11.442;2023-04-23T15:17:21;19.50;92.50
14122;DHT22;7139;48.114;11.442;2023-04-23T15:19:47;19.60;92.50
14122;DHT22;7139;48.114;11.442;2023-04-23T15:22:14;19.60;92.60
14122;DHT22;7139;48.114;11.442;2023-04-23T15:24:41;19.60;92.60
14122;DHT22;7139;48.114;11.442;2023-04-23T15:27:07;19.80;92.70
14122;DHT22;7139;48.114;11.442;2023-04-23T15:29:39;19.90;92.40
14122;DHT22;7139;48.114;11.442;2023-04-23T15:32:07;20.00;92.30
14122;DHT22;7139;48.114;11.442;2023-04-23T15:34:34;20.10;92.60
14122;DHT22;7139;48.114;11.442;2023-04-23T15:37:01;20.10;92.30